createdAt,value
2023-03-16T00:01:03.345Z,21.80
2023-03-16T00:03:37.272Z,21.80
2023-03-16T00:06:10.379Z,21.80
2023-03-16T00:08:44.588Z,21.90
2023-03-16T00:11:17.306Z,21.90
2023-03-16T00:13:50.341Z,21.90
2023-03-16T00:16:23.544Z,21.80
2023-03-16T00:18:56.522Z,21.90
2023-03-16T00:21:29.458Z,21.80
2023-03-16T00:24:02.580Z,21.80
2023-03-16T00:26:35.818Z,21.90
2023-03-16T00:29:08.840Z,21.90
2023-03-16T00:31:42.319Z,22.00
2023-03-16T00:34:18.384Z,22.00
2023-03-16T00:36:51.623Z,22.00
2023-03-16T00:39:24.771Z,22.00
2023-03-16T00:41:59.543Z,21.90
2023-03-16T00:44:33.553Z,21.90
2023-03-16T00:47:08.318Z,21.90
2023-03-16T00:49:41.752Z,21.90
2023-03-16T00:52:19.236Z,21.90
2023-03-16T00:54:53.856Z,21.90
2023-03-16T00:57:27.894Z,21.80
2023-03-16T01:00:01.635Z,21.80
2023-03-16T01:02:34.900Z,21.90
2023-03-16T01:05:12.173Z,21.90
2023-03-16T01:07:52.353Z,22.00
2023-03-16T01:10:25.731Z,22.10
2023-03-16T01:12:58.971Z,22.20
2023-03-16T01:15:32.136Z,22.20
2023-03-16T01:18:05.219Z,22.30
2023-03-16T01:20:38.074Z,22.30
2023-03-16T01:23:11.327Z,22.30
2023-03-16T01:25:44.427Z,22.30
2023-03-16T01:28:17.514Z,22.30
2023-03-16T01:30:50.468Z,22.30
2023-03-16T01:33:23.812Z,22.30
2023-03-16T01:36:04.717Z,22.40
2023-03-16T01:38:38.846Z,22.40
2023-03-16T01:41:16.506Z,22.40
2023-03-16T01:43:50.161Z,22.40
2023-03-16T01:46:28.025Z,22.30
2023-03-16T01:49:05.775Z,22.30
2023-03-16T01:51:46.762Z,22.20
2023-03-16T01:54:21.636Z,22.10
2023-03-16T01:57:15.749Z,22.10
2023-03-16T01:59:53.250Z,22.00
2023-03-16T02:02:28.156Z,22.00
2023-03-16T02:05:06.153Z,22.00
2023-03-16T02:08:18.505Z,21.90
2023-03-16T02:10:52.065Z,21.90
2023-03-16T02:13:26.107Z,21.90
2023-03-16T02:15:59.750Z,21.90
2023-03-16T02:18:33.004Z,21.80
2023-03-16T02:21:10.993Z,21.80
2023-03-16T02:23:45.424Z,21.80
2023-03-16T02:26:28.998Z,21.80
2023-03-16T02:29:33.895Z,21.80
2023-03-16T02:32:07.665Z,21.80
2023-03-16T02:34:40.798Z,21.80
2023-03-16T02:37:14.873Z,21.80
2023-03-16T02:39:47.856Z,21.80
2023-03-16T02:42:25.452Z,21.80
2023-03-16T02:45:00.420Z,21.80
2023-03-16T02:47:38.157Z,21.80
2023-03-16T02:50:12.356Z,21.70
2023-03-16T02:52:45.565Z,21.70
2023-03-16T02:55:18.538Z,21.70
2023-03-16T02:57:51.438Z,21.70
2023-03-16T03:00:25.183Z,21.60
2023-03-16T03:02:58.541Z,21.60
2023-03-16T03:05:31.798Z,21.60
2023-03-16T03:08:04.794Z,21.70
2023-03-16T03:10:38.116Z,21.70
2023-03-16T03:13:11.090Z,21.70
2023-03-16T03:15:44.203Z,21.80
2023-03-16T03:18:17.283Z,21.80
2023-03-16T03:20:50.537Z,21.80
2023-03-16T03:23:24.221Z,21.80
2023-03-16T03:25:58.452Z,21.80
2023-03-16T03:28:31.709Z,21.80
2023-03-16T03:31:05.045Z,21.80
2023-03-16T03:33:38.387Z,21.80
2023-03-16T03:36:11.708Z,21.80
2023-03-16T03:38:45.679Z,21.70
2023-03-16T03:41:19.119Z,21.70
2023-03-16T03:43:54.010Z,21.70
2023-03-16T03:46:27.423Z,21.70
2023-03-16T03:49:01.914Z,21.70
2023-03-16T03:51:35.596Z,21.80
2023-03-16T03:54:09.099Z,21.80
2023-03-16T03:56:42.151Z,21.70
2023-03-16T03:59:15.268Z,21.70
2023-03-16T04:01:50.832Z,21.70
2023-03-16T04:04:24.694Z,21.60
2023-03-16T04:06:57.703Z,21.60
2023-03-16T04:09:30.876Z,21.60
2023-03-16T04:12:04.402Z,21.60
2023-03-16T04:14:37.453Z,21.60
2023-03-16T04:17:10.826Z,21.50
2023-03-16T04:19:44.786Z,21.50
2023-03-16T04:22:19.386Z,21.50
2023-03-16T04:24:53.607Z,21.40
2023-03-16T04:27:26.362Z,21.40
2023-03-16T04:30:00.331Z,21.40
2023-03-16T04:32:33.761Z,21.40
2023-03-16T04:35:06.860Z,21.30
2023-03-16T04:37:40.090Z,21.30
2023-03-16T04:40:21.106Z,21.30
2023-03-16T04:42:54.162Z,21.30
2023-03-16T04:45:27.302Z,21.30
2023-03-16T04:48:00.265Z,21.30
2023-03-16T04:50:33.205Z,21.30
2023-03-16T04:53:06.770Z,21.30
2023-03-16T04:55:39.711Z,21.30
2023-03-16T04:58:12.772Z,21.30
2023-03-16T05:00:45.811Z,21.30
2023-03-16T05:03:18.727Z,21.30
2023-03-16T05:05:56.448Z,21.30
2023-03-16T05:08:29.430Z,21.20
2023-03-16T05:11:03.791Z,21.20
2023-03-16T05:13:41.514Z,21.20
2023-03-16T05:16:14.636Z,21.20
2023-03-16T05:18:47.590Z,21.20
2023-03-16T05:21:20.614Z,21.20
2023-03-16T05:23:53.711Z,21.20
2023-03-16T05:26:27.938Z,21.10
2023-03-16T05:29:01.001Z,21.10
2023-03-16T05:31:35.394Z,21.10
2023-03-16T05:34:08.411Z,21.10
2023-03-16T05:36:41.624Z,21.10
2023-03-16T05:39:15.162Z,21.10
2023-03-16T05:41:48.371Z,21.10
2023-03-16T05:44:21.257Z,21.10
2023-03-16T05:46:54.669Z,21.00
2023-03-16T05:49:28.125Z,21.00
2023-03-16T05:52:01.091Z,21.00
2023-03-16T05:54:34.681Z,21.00
2023-03-16T05:57:08.950Z,21.00
2023-03-16T05:59:41.910Z,21.00
2023-03-16T06:02:14.696Z,20.90
2023-03-16T06:04:47.933Z,20.90
2023-03-16T06:07:20.672Z,20.80
2023-03-16T06:09:53.450Z,20.70
2023-03-16T06:12:26.301Z,20.60
2023-03-16T06:14:58.876Z,20.60
2023-03-16T06:17:31.787Z,20.60
2023-03-16T06:20:04.900Z,20.60
2023-03-16T06:22:37.684Z,20.50
2023-03-16T06:25:11.880Z,20.50
2023-03-16T06:27:49.445Z,20.40
2023-03-16T06:30:25.625Z,20.40
2023-03-16T06:33:00.333Z,20.40
2023-03-16T06:35:33.517Z,20.40
2023-03-16T06:38:07.682Z,20.40
2023-03-16T06:40:49.443Z,20.30
2023-03-16T06:43:22.440Z,20.30
2023-03-16T06:45:55.434Z,20.30
2023-03-16T06:48:28.771Z,20.40
2023-03-16T06:51:02.062Z,20.30
2023-03-16T06:53:38.093Z,20.30
2023-03-16T06:56:11.472Z,20.30
2023-03-16T06:58:44.718Z,20.30
2023-03-16T07:01:18.035Z,20.30
2023-03-16T07:03:51.126Z,20.30
2023-03-16T07:06:24.435Z,20.30
2023-03-16T07:08:57.516Z,20.30
2023-03-16T07:11:30.434Z,20.30
2023-03-16T07:14:03.874Z,20.40
2023-03-16T07:16:37.217Z,20.30
2023-03-16T07:19:10.170Z,20.30
2023-03-16T07:21:43.827Z,20.30
2023-03-16T07:24:17.267Z,20.30
2023-03-16T07:26:49.999Z,20.30
2023-03-16T07:29:23.053Z,20.30
2023-03-16T07:31:56.062Z,20.30
2023-03-16T07:34:29.672Z,20.20
2023-03-16T07:37:03.010Z,20.20
2023-03-16T07:39:36.556Z,20.20
2023-03-16T07:42:09.909Z,20.20
2023-03-16T07:44:42.765Z,20.20
2023-03-16T07:47:16.719Z,20.20
2023-03-16T07:49:50.097Z,20.10
2023-03-16T07:52:23.162Z,20.10
2023-03-16T07:54:56.450Z,20.10
2023-03-16T07:57:29.733Z,20.10
2023-03-16T08:00:02.910Z,20.10
2023-03-16T08:02:36.004Z,20.10
2023-03-16T08:05:10.786Z,20.10
2023-03-16T08:07:43.793Z,20.10
2023-03-16T08:10:17.126Z,20.10
2023-03-16T08:12:50.202Z,20.10
2023-03-16T08:15:23.596Z,20.10
2023-03-16T08:17:56.700Z,20.10
2023-03-16T08:20:30.400Z,20.10
2023-03-16T08:23:03.712Z,20.10
2023-03-16T08:25:36.700Z,20.10
2023-03-16T08:28:10.916Z,20.20
2023-03-16T08:30:51.952Z,20.20
2023-03-16T08:33:25.076Z,20.20
2023-03-16T08:35:58.273Z,20.20
2023-03-16T08:38:31.571Z,20.20
2023-03-16T08:41:04.679Z,20.20
2023-03-16T08:43:39.413Z,20.20
2023-03-16T08:46:12.739Z,20.20
2023-03-16T08:48:46.146Z,20.10
2023-03-16T08:51:23.965Z,20.10
2023-03-16T08:53:57.119Z,20.10
2023-03-16T08:56:31.879Z,20.10
2023-03-16T08:59:05.559Z,20.10
2023-03-16T09:01:38.739Z,20.10
2023-03-16T09:04:11.758Z,20.10
2023-03-16T09:06:44.730Z,20.10
2023-03-16T09:09:17.968Z,20.10
2023-03-16T09:11:51.840Z,20.20
2023-03-16T09:14:25.422Z,20.20
2023-03-16T09:16:58.687Z,20.20
2023-03-16T09:19:44.288Z,20.20
2023-03-16T09:22:06.012Z,20.20
2023-03-16T09:24:39.630Z,20.20
2023-03-16T09:27:12.779Z,20.20
2023-03-16T09:29:45.873Z,20.20
2023-03-16T09:32:18.715Z,20.20
2023-03-16T09:34:51.801Z,20.20
2023-03-16T09:37:25.243Z,20.20
2023-03-16T09:40:06.266Z,20.10
2023-03-16T09:42:43.447Z,20.10
2023-03-16T09:45:18.100Z,20.10
2023-03-16T09:47:52.986Z,20.10
2023-03-16T09:50:47.261Z,20.10
2023-03-16T09:53:28.485Z,20.10
2023-03-16T09:56:06.294Z,20.10
2023-03-16T09:58:42.923Z,20.10
2023-03-16T10:01:38.897Z,20.10
2023-03-16T10:04:16.855Z,20.10
2023-03-16T10:06:54.873Z,20.20
2023-03-16T10:09:38.954Z,20.10
2023-03-16T10:12:12.792Z,20.20
2023-03-16T10:14:51.088Z,20.20
2023-03-16T10:17:31.720Z,20.20
2023-03-16T10:20:12.512Z,20.20
2023-03-16T10:22:47.133Z,20.20
2023-03-16T10:25:31.201Z,20.20
2023-03-16T10:28:04.376Z,20.20
2023-03-16T10:30:39.260Z,20.20
2023-03-16T10:33:20.454Z,20.20
2023-03-16T10:36:12.132Z,20.20
2023-03-16T10:38:57.170Z,20.20
2023-03-16T10:41:34.657Z,20.10
2023-03-16T10:44:13.335Z,20.10
2023-03-16T10:46:55.591Z,20.10
2023-03-16T10:49:45.656Z,20.10
2023-03-16T10:52:44.538Z,20.00
2023-03-16T10:55:22.577Z,19.90
2023-03-16T10:57:57.100Z,19.90
2023-03-16T11:00:34.505Z,19.80
2023-03-16T11:03:09.604Z,19.80
2023-03-16T11:05:42.495Z,19.70
2023-03-16T11:08:21.024Z,19.70
2023-03-16T11:11:02.191Z,19.60
2023-03-16T11:13:40.381Z,19.60
2023-03-16T11:16:39.109Z,19.50
2023-03-16T11:19:23.287Z,19.50
2023-03-16T11:22:01.163Z,19.50
2023-03-16T11:24:41.845Z,19.40
2023-03-16T11:27:16.911Z,19.40
2023-03-16T11:29:51.710Z,19.40
2023-03-16T11:32:26.615Z,19.40
2023-03-16T11:34:59.572Z,19.40
2023-03-16T11:37:49.372Z,19.40
2023-03-16T11:40:24.443Z,19.40
2023-03-16T11:43:02.159Z,19.30
2023-03-16T11:45:44.289Z,19.30
2023-03-16T11:48:28.331Z,19.30
2023-03-16T11:51:15.256Z,19.30
2023-03-16T11:53:56.562Z,19.30
2023-03-16T11:56:46.392Z,19.30
2023-03-16T11:59:42.380Z,19.30
2023-03-16T12:02:38.300Z,19.30
2023-03-16T12:05:41.693Z,19.30
2023-03-16T12:08:28.221Z,19.30
2023-03-16T12:11:06.510Z,19.20
2023-03-16T12:14:06.942Z,19.20
2023-03-16T12:16:49.591Z,19.20
2023-03-16T12:19:33.029Z,19.20
2023-03-16T12:22:13.520Z,19.20
2023-03-16T12:24:50.816Z,19.20
2023-03-16T12:27:34.682Z,19.20
2023-03-16T12:30:13.549Z,19.20
2023-03-16T12:32:51.248Z,19.20
2023-03-16T12:35:26.171Z,19.20
2023-03-16T12:38:20.802Z,19.20
2023-03-16T12:41:02.301Z,19.20
2023-03-16T12:43:59.118Z,19.30
2023-03-16T12:46:54.231Z,19.30
2023-03-16T12:49:28.596Z,19.30
2023-03-16T12:52:11.360Z,19.30
2023-03-16T12:54:55.415Z,19.30
2023-03-16T12:57:31.412Z,19.30
2023-03-16T13:00:06.517Z,19.30
2023-03-16T13:02:41.712Z,19.30
2023-03-16T13:05:19.376Z,19.30
2023-03-16T13:07:54.602Z,19.40
2023-03-16T13:10:28.050Z,19.40
2023-03-16T13:13:03.944Z,19.40
2023-03-16T13:15:37.149Z,19.30
2023-03-16T13:18:21.199Z,19.30
2023-03-16T13:21:02.537Z,19.30
2023-03-16T13:23:52.424Z,19.30
2023-03-16T13:26:39.295Z,19.20
2023-03-16T13:29:29.566Z,19.20
2023-03-16T13:32:05.392Z,19.20
2023-03-16T13:34:42.783Z,19.20
2023-03-16T13:37:20.020Z,19.20
2023-03-16T13:40:07.064Z,19.20
2023-03-16T13:42:40.658Z,19.30
2023-03-16T13:45:18.845Z,19.30
2023-03-16T13:47:52.351Z,19.30
2023-03-16T13:50:25.746Z,19.30
2023-03-16T13:53:07.121Z,19.30
2023-03-16T13:55:42.334Z,19.40
2023-03-16T13:58:29.471Z,19.40
2023-03-16T14:01:04.984Z,19.40
2023-03-16T14:03:43.979Z,19.40
2023-03-16T14:06:30.685Z,19.40
2023-03-16T14:09:08.878Z,19.40
2023-03-16T14:11:44.437Z,19.40
2023-03-16T14:14:25.564Z,19.40
2023-03-16T14:17:01.297Z,19.40
2023-03-16T14:19:35.810Z,19.40
2023-03-16T14:22:09.025Z,19.40
2023-03-16T14:24:43.012Z,19.40
2023-03-16T14:27:26.751Z,19.40
2023-03-16T14:30:04.506Z,19.40
2023-03-16T14:32:38.106Z,19.40
2023-03-16T14:35:25.108Z,19.40
2023-03-16T14:37:58.929Z,19.40
2023-03-16T14:40:33.769Z,19.40
2023-03-16T14:43:08.097Z,19.30
2023-03-16T14:45:44.312Z,19.30
2023-03-16T14:48:22.363Z,19.30
2023-03-16T14:50:59.767Z,19.30
2023-03-16T14:53:32.849Z,19.30
2023-03-16T14:56:06.660Z,19.30
2023-03-16T14:58:40.040Z,19.30
2023-03-16T15:01:15.489Z,19.30
2023-03-16T15:03:49.019Z,19.40
2023-03-16T15:06:22.898Z,19.40
2023-03-16T15:08:56.577Z,19.40
2023-03-16T15:11:30.845Z,19.40
2023-03-16T15:14:10.790Z,19.40
2023-03-16T15:16:45.214Z,19.40
2023-03-16T15:19:18.120Z,19.40
2023-03-16T15:21:51.012Z,19.40
2023-03-16T15:24:23.878Z,19.40
2023-03-16T15:26:57.653Z,19.40
2023-03-16T15:29:30.390Z,19.40
2023-03-16T15:32:03.198Z,19.40
2023-03-16T15:34:36.305Z,19.40
2023-03-16T15:37:09.221Z,19.40
2023-03-16T15:39:42.084Z,19.40
2023-03-16T15:42:20.081Z,19.40
2023-03-16T15:44:52.899Z,19.40
2023-03-16T15:47:25.836Z,19.40
2023-03-16T15:49:58.753Z,19.40
2023-03-16T15:52:33.821Z,19.50
2023-03-16T15:55:08.247Z,19.50
2023-03-16T15:57:42.052Z,19.50
2023-03-16T16:00:25.636Z,19.50
2023-03-16T16:02:59.697Z,19.50
2023-03-16T16:05:32.863Z,19.50
2023-03-16T16:08:10.536Z,19.50
2023-03-16T16:10:44.852Z,19.50
2023-03-16T16:13:34.113Z,19.50
2023-03-16T16:16:00.852Z,19.50
2023-03-16T16:18:41.407Z,19.50
2023-03-16T16:21:24.123Z,19.50
2023-03-16T16:23:57.283Z,19.50
2023-03-16T16:26:48.960Z,19.50
2023-03-16T16:29:22.467Z,19.50
2023-03-16T16:31:56.998Z,19.50
2023-03-16T16:34:29.843Z,19.50
2023-03-16T16:37:02.912Z,19.50
2023-03-16T16:39:35.866Z,19.50
2023-03-16T16:42:09.623Z,19.50
2023-03-16T16:44:42.472Z,19.60
2023-03-16T16:47:24.749Z,19.60
2023-03-16T16:49:58.334Z,19.50
2023-03-16T16:52:31.288Z,19.60
2023-03-16T16:55:04.410Z,19.50
2023-03-16T16:57:37.861Z,19.50
2023-03-16T17:00:13.898Z,19.50
2023-03-16T17:02:48.740Z,19.50
2023-03-16T17:05:23.937Z,19.50
2023-03-16T17:07:57.482Z,19.50
2023-03-16T17:10:31.289Z,19.50
2023-03-16T17:13:04.235Z,19.40
2023-03-16T17:15:37.248Z,19.50
2023-03-16T17:18:12.168Z,19.50
2023-03-16T17:20:45.319Z,19.40
2023-03-16T17:23:36.238Z,19.50
2023-03-16T17:26:22.904Z,19.40
2023-03-16T17:29:03.685Z,19.40
2023-03-16T17:31:41.658Z,19.40
2023-03-16T17:34:19.589Z,19.40
2023-03-16T17:36:53.133Z,19.40
2023-03-16T17:39:31.441Z,19.40
2023-03-16T17:42:09.391Z,19.40
2023-03-16T17:44:47.702Z,19.40
2023-03-16T17:47:25.666Z,19.40
2023-03-16T17:49:58.855Z,19.40
2023-03-16T17:52:33.390Z,19.40
2023-03-16T17:55:06.362Z,19.40
2023-03-16T17:57:39.860Z,19.40
2023-03-16T18:00:31.232Z,19.40
2023-03-16T18:03:06.955Z,19.40
2023-03-16T18:05:40.438Z,19.40
2023-03-16T18:08:22.870Z,19.40
2023-03-16T18:10:58.141Z,19.40
2023-03-16T18:13:33.256Z,19.40
2023-03-16T18:16:07.808Z,19.40
2023-03-16T18:18:43.259Z,19.40
2023-03-16T18:21:25.046Z,19.40
2023-03-16T18:23:58.285Z,19.40
2023-03-16T18:26:35.837Z,19.40
2023-03-16T18:29:08.719Z,19.50
2023-03-16T18:31:44.959Z,19.50
2023-03-16T18:34:23.007Z,19.50
2023-03-16T18:36:57.820Z,19.50
2023-03-16T18:39:30.971Z,19.50
2023-03-16T18:42:05.042Z,19.50
2023-03-16T18:44:38.105Z,19.50
2023-03-16T18:47:12.106Z,19.50
2023-03-16T18:49:46.193Z,19.50
2023-03-16T18:52:21.040Z,19.50
2023-03-16T18:54:54.933Z,19.60
2023-03-16T18:57:32.952Z,19.60
2023-03-16T19:00:06.441Z,19.60
2023-03-16T19:02:44.759Z,19.60
2023-03-16T19:05:23.472Z,19.60
2023-03-16T19:07:57.226Z,19.60
2023-03-16T19:10:35.606Z,19.70
2023-03-16T19:13:09.854Z,19.70
2023-03-16T19:15:43.068Z,19.70
2023-03-16T19:18:20.488Z,19.70
2023-03-16T19:20:54.302Z,19.70
2023-03-16T19:23:36.192Z,19.80
2023-03-16T19:26:09.547Z,19.70
2023-03-16T19:28:43.553Z,19.80
2023-03-16T19:31:28.134Z,19.80
2023-03-16T19:34:01.713Z,19.80
2023-03-16T19:36:35.903Z,19.80
2023-03-16T19:39:09.738Z,19.80
2023-03-16T19:41:43.272Z,19.80
2023-03-16T19:44:27.264Z,19.80
2023-03-16T19:47:01.630Z,19.80
2023-03-16T19:49:35.414Z,19.80
2023-03-16T19:52:09.656Z,19.80
2023-03-16T19:54:44.088Z,19.80
2023-03-16T19:57:21.736Z,19.80
2023-03-16T19:59:56.715Z,19.90
2023-03-16T20:02:41.233Z,19.90
2023-03-16T20:05:16.453Z,19.90
2023-03-16T20:07:49.431Z,19.90
2023-03-16T20:10:24.643Z,19.90
2023-03-16T20:12:59.975Z,19.90
2023-03-16T20:15:35.250Z,19.90
2023-03-16T20:18:10.975Z,20.00
2023-03-16T20:20:44.308Z,20.00
2023-03-16T20:23:25.198Z,20.10
2023-03-16T20:26:02.716Z,20.10
2023-03-16T20:28:42.055Z,20.20
2023-03-16T20:31:26.013Z,20.30
2023-03-16T20:33:59.031Z,20.30
2023-03-16T20:36:33.324Z,20.40
2023-03-16T20:39:06.309Z,20.40
2023-03-16T20:41:41.137Z,20.40
2023-03-16T20:44:15.996Z,20.50
2023-03-16T20:46:50.170Z,20.50
2023-03-16T20:49:32.477Z,20.50
2023-03-16T20:52:05.895Z,20.50
2023-03-16T20:54:39.108Z,20.50
2023-03-16T20:57:19.757Z,20.50
2023-03-16T20:59:54.015Z,20.50
2023-03-16T21:02:36.638Z,20.60
2023-03-16T21:05:10.919Z,20.60
2023-03-16T21:07:43.786Z,20.60
2023-03-16T21:10:23.159Z,20.60
2023-03-16T21:12:58.337Z,20.70
2023-03-16T21:15:33.711Z,20.70
2023-03-16T21:18:09.252Z,20.70
2023-03-16T21:20:42.332Z,20.70
2023-03-16T21:23:17.339Z,20.70
2023-03-16T21:26:01.300Z,20.80
2023-03-16T21:28:36.064Z,20.80
2023-03-16T21:31:09.756Z,20.80
2023-03-16T21:33:43.825Z,20.80
2023-03-16T21:36:21.865Z,20.80
2023-03-16T21:38:55.558Z,20.80
2023-03-16T21:41:28.507Z,20.80
2023-03-16T21:44:01.349Z,20.80
2023-03-16T21:46:34.591Z,20.80
2023-03-16T21:49:07.584Z,20.90
2023-03-16T21:51:42.128Z,20.90
2023-03-16T21:54:19.469Z,20.90
2023-03-16T21:56:52.553Z,20.90
2023-03-16T21:59:25.527Z,20.90
2023-03-16T22:02:01.907Z,20.90
2023-03-16T22:04:33.269Z,20.90
2023-03-16T22:07:06.415Z,20.90
2023-03-16T22:09:39.457Z,20.90
2023-03-16T22:12:16.450Z,20.90
2023-03-16T22:14:49.521Z,20.90
2023-03-16T22:17:29.012Z,20.90
2023-03-16T22:20:04.295Z,20.90
2023-03-16T22:22:37.928Z,20.90
2023-03-16T22:25:20.034Z,20.90
2023-03-16T22:27:54.105Z,20.90
2023-03-16T22:30:29.286Z,20.90
2023-03-16T22:33:03.777Z,21.00
2023-03-16T22:35:41.908Z,21.00
2023-03-16T22:38:16.878Z,21.00
2023-03-16T22:40:49.827Z,21.00
2023-03-16T22:43:24.562Z,21.10
2023-03-16T22:45:58.849Z,21.10
2023-03-16T22:48:33.153Z,21.20
2023-03-16T22:51:07.855Z,21.30
2023-03-16T22:53:42.560Z,21.40
2023-03-16T22:56:15.805Z,21.50
2023-03-16T22:58:51.463Z,21.60
2023-03-16T23:01:30.393Z,21.70
2023-03-16T23:04:03.639Z,21.70
2023-03-16T23:06:37.203Z,21.70
2023-03-16T23:09:10.069Z,21.80
2023-03-16T23:11:43.758Z,21.80
2023-03-16T23:14:27.722Z,21.90
2023-03-16T23:17:00.770Z,21.90
2023-03-16T23:19:38.114Z,22.00
2023-03-16T23:22:13.425Z,21.90
2023-03-16T23:24:47.637Z,21.90
2023-03-16T23:27:22.362Z,21.90
2023-03-16T23:29:55.450Z,21.90
2023-03-16T23:32:28.626Z,21.80
2023-03-16T23:35:02.364Z,21.80
2023-03-16T23:37:35.276Z,21.80
2023-03-16T23:40:08.713Z,21.80
2023-03-16T23:42:41.840Z,21.80
2023-03-16T23:45:31.701Z,21.80
2023-03-16T23:48:06.702Z,21.80
2023-03-16T23:50:40.759Z,21.70
2023-03-16T23:53:21.898Z,21.70
2023-03-16T23:55:54.961Z,21.70
2023-03-16T23:58:28.063Z,21.70
